Weather at Etna Airport

Public forecast

Using degrees Fahrenheit for public forecast. Weather courtesy of forecast.io.

Closest aviation weather report (METAR) to Etna Airport

Closest report is Fort Smith Regional Airport, 25.8 nm (47.7 km) W. Retrieved 2022/05/22 23:53 UTC (12 minutes ago):

KFSM 222353Z 10007KT 10SM OVC043 17/09 A3021 RMK AO2 SLP230 T01720089 10178 20150 57013

Closest aviation forecast (TAF) to Etna Airport

Closest forecast is Fort Smith Regional Airport, 25.8 nm (47.7 km) W. Retrieved 2022-05-23 00:22 UTC (0 seconds ago):

TAF KFSM 222320Z 2300/2324 08007KT P6SM OVC040